Time;durP1;ratioP1;P1;durP2;ratioP2;P2;SDS_P1;SDS_P2;PMS_P1;PMS_P2;Temp;Humidity;BMP_temperature;BMP_pressure;BME280_temperature;BME280_humidity;BME280_pressure;Samples;Min_cycle;Max_cycle;Signal;HPM_P1;HPM_P2
2022/12/25 00:03:37;;;;;;;24.23;10.37;;;;;;;11.97;64.67;98120.69;8448942;28;20462;-68
2022/12/25 00:07:41;;;;;;;17.33;8.27;;;;;;;12.03;64.73;98131.63;8448784;28;20234;-68
2022/12/25 00:11:44;;;;;;;19.73;8.60;;;;;;;11.95;64.27;98122.50;8448625;28;20223;-67
2022/12/25 00:15:47;;;;;;;18.17;7.80;;;;;;;12.07;64.66;98127.97;8448331;28;20234;-68
2022/12/25 00:19:50;;;;;;;19.73;8.50;;;;;;;11.97;65.01;98125.88;8448055;28;20227;-67
2022/12/25 00:23:56;;;;;;;16.27;7.43;;;;;;;12.05;64.57;98122.00;8447601;28;20235;-68
2022/12/25 00:27:59;;;;;;;16.10;7.13;;;;;;;12.03;64.08;98115.19;8447823;28;20406;-67
2022/12/25 00:32:01;;;;;;;13.27;6.43;;;;;;;11.98;64.48;98114.59;8447797;28;20232;-67
2022/12/25 00:36:06;;;;;;;15.50;6.20;;;;;;;12.05;64.38;98119.41;8447749;28;20219;-67
2022/12/25 00:40:11;;;;;;;13.77;6.10;;;;;;;12.00;64.64;98116.19;8447450;28;20566;-68
2022/12/25 00:44:13;;;;;;;15.03;6.63;;;;;;;11.71;64.41;98089.00;8447337;28;20226;-67
2022/12/25 00:48:16;;;;;;;13.60;7.40;;;;;;;11.73;65.39;98110.53;8447391;28;20224;-68
2022/12/25 00:52:19;;;;;;;15.63;7.70;;;;;;;11.73;65.49;98110.53;8447344;28;20507;-67
2022/12/25 00:56:23;;;;;;;16.93;7.37;;;;;;;11.59;65.94;98113.72;8446283;28;20227;-67
2022/12/25 01:00:26;;;;;;;16.13;6.40;;;;;;;11.60;66.31;98120.63;8446929;28;20223;-67
2022/12/25 01:04:29;;;;;;;14.27;7.03;;;;;;;11.29;67.15;98122.00;8447010;28;20224;-67
2022/12/25 01:08:34;;;;;;;15.50;7.43;;;;;;;11.47;66.71;98119.50;8446831;28;20227;-67
2022/12/25 01:12:40;;;;;;;13.90;7.43;;;;;;;11.26;67.17;98124.72;8447031;28;20245;-68
2022/12/25 01:16:43;;;;;;;16.47;7.30;;;;;;;11.48;67.09;98127.22;8446596;28;20236;-67
2022/12/25 01:20:46;;;;;;;13.33;7.20;;;;;;;11.36;66.99;98125.16;8446615;28;20236;-67
2022/12/25 01:24:49;;;;;;;16.07;6.90;;;;;;;11.14;68.20;98128.72;8446232;28;20234;-67
2022/12/25 01:28:53;;;;;;;13.10;6.60;;;;;;;11.36;67.00;98130.34;8446561;28;20228;-68
2022/12/25 01:32:56;;;;;;;13.27;6.77;;;;;;;11.36;67.06;98132.94;8445781;28;20231;-68
2022/12/25 01:36:59;;;;;;;15.00;6.37;;;;;;;10.93;67.71;98111.53;8446382;28;20227;-68
2022/12/25 01:41:02;;;;;;;10.37;6.27;;;;;;;11.33;66.59;98117.53;8445655;28;20235;-68
2022/12/25 01:45:35;;;;;;;14.20;6.90;;;;;;;11.11;67.88;98126.25;8445965;28;20231;-67
2022/12/25 01:49:40;;;;;;;11.83;6.47;;;;;;;10.99;66.55;98058.59;8446113;28;20235;-68
2022/12/25 01:53:42;;;;;;;9.53;6.33;;;;;;;11.45;66.45;98136.88;8446071;28;20228;-67
2022/12/25 01:57:45;;;;;;;11.77;6.53;;;;;;;11.37;66.49;98142.41;8446092;28;20235;-67
2022/12/25 02:01:50;;;;;;;11.07;6.20;;;;;;;11.43;65.79;98136.94;8445995;28;20223;-68
2022/12/25 02:05:54;;;;;;;11.63;6.83;;;;;;;11.26;66.18;98124.72;8445495;28;20296;-67
2022/12/25 02:09:57;;;;;;;11.60;6.70;;;;;;;11.43;66.32;98125.75;8450328;28;20242;-68
2022/12/25 02:14:00;;;;;;;12.07;6.60;;;;;;;11.27;66.21;98123.84;8452435;28;20235;-67
2022/12/25 02:18:08;;;;;;;9.90;5.53;;;;;;;11.63;65.25;98137.78;8452153;28;20257;-67
2022/12/25 02:22:16;;;;;;;11.07;5.90;;;;;;;11.53;65.41;98145.16;8452250;28;20223;-67
2022/12/25 02:26:31;;;;;;;10.47;6.20;;;;;;;11.24;66.20;98144.69;8451883;28;20297;-67
2022/12/25 02:30:40;;;;;;;11.27;5.90;;;;;;;11.41;66.31;98145.72;8452022;28;20458;-68
2022/12/25 02:34:47;;;;;;;12.03;5.83;;;;;;;11.27;67.02;98144.59;8451953;28;20263;-67
2022/12/25 03:16:49;;;;;;;8.40;5.03;;;;;;;11.29;66.04;98114.25;8450200;28;20227;-67
2022/12/25 03:18:25;;;;;;;9.03;4.83;;;;;;;11.43;65.76;98113.59;8450152;28;20228;-67
2022/12/25 03:26:54;;;;;;;7.00;5.03;;;;;;;10.98;66.81;98098.34;8449884;28;20228;-67
2022/12/25 03:31:13;;;;;;;5.83;4.33;;;;;;;11.17;66.69;98098.38;8449797;28;20227;-68
2022/12/25 03:35:24;;;;;;;7.00;5.00;;;;;;;10.93;67.45;98096.81;8449867;28;20334;-67
2022/12/25 04:36:22;;;;;;;5.20;4.13;;;;;;;10.85;65.21;98105.81;8414468;28;20230;-67
2022/12/25 04:40:25;;;;;;;5.63;4.00;;;;;;;10.92;64.97;98108.06;8413778;28;20235;-67
2022/12/25 04:44:28;;;;;;;7.30;4.20;;;;;;;11.04;64.76;98114.50;8414118;28;20228;-68
2022/12/25 04:48:33;;;;;;;4.87;4.20;;;;;;;10.79;64.99;98106.91;8414095;28;20228;-67
2022/12/25 04:52:37;;;;;;;4.90;4.40;;;;;;;10.95;65.27;98112.28;8414146;28;20233;-67
2022/12/25 04:56:39;;;;;;;5.50;3.90;;;;;;;10.75;66.07;98106.19;8413601;28;20228;-67
2022/12/25 05:00:47;;;;;;;5.30;3.90;;;;;;;10.47;67.18;98103.97;8413646;28;20240;-67
2022/12/25 05:04:51;;;;;;;4.10;3.50;;;;;;;10.35;67.49;98091.50;8413763;28;20452;-68
2022/12/25 05:08:54;;;;;;;5.70;4.00;;;;;;;10.47;66.75;98082.38;8413159;28;20235;-68
2022/12/25 05:12:57;;;;;;;6.70;3.63;;;;;;;10.44;66.82;98087.72;8413301;28;20228;-67
2022/12/25 05:16:59;;;;;;;4.17;3.50;;;;;;;10.79;65.47;98083.59;8417443;28;20239;-67
2022/12/25 05:21:04;;;;;;;7.20;3.77;;;;;;;10.70;65.41;98081.41;8446727;28;20239;-67
2022/12/25 05:25:07;;;;;;;3.70;3.40;;;;;;;10.73;65.04;98069.16;8446755;28;20219;-68
2022/12/25 05:29:10;;;;;;;6.33;3.80;;;;;;;10.55;65.47;98078.56;8446363;28;20425;-67
2022/12/25 05:33:13;;;;;;;6.27;3.80;;;;;;;9.90;65.39;97997.56;8446523;28;20220;-68
2022/12/25 05:37:17;;;;;;;4.53;3.90;;;;;;;10.36;65.79;98068.16;8446397;28;20464;-67
2022/12/25 05:41:20;;;;;;;6.23;3.80;;;;;;;10.43;65.72;98073.06;8446037;28;20302;-67
2022/12/25 05:45:23;;;;;;;5.43;3.67;;;;;;;10.16;66.27;98057.75;8445707;28;20219;-67
2022/12/25 05:49:26;;;;;;;4.07;3.67;;;;;;;10.40;65.00;98060.28;8446226;28;20386;-67
2022/12/25 05:53:30;;;;;;;4.37;3.57;;;;;;;10.20;64.96;98064.47;8445980;28;20230;-67
2022/12/25 05:57:33;;;;;;;4.07;3.40;;;;;;;9.83;64.87;97985.78;8445995;28;20230;-67
2022/12/25 06:01:35;;;;;;;6.97;3.90;;;;;;;10.32;64.19;98066.59;8445904;28;20231;-67
2022/12/25 06:05:38;;;;;;;4.27;3.50;;;;;;;10.42;63.76;98079.16;8445956;28;20228;-67
2022/12/25 06:09:43;;;;;;;5.83;3.50;;;;;;;10.30;62.80;98081.34;8445838;28;20234;-67
2022/12/25 06:13:49;;;;;;;4.77;3.23;;;;;;;10.57;63.13;98075.94;8445737;28;20229;-67
2022/12/25 06:17:52;;;;;;;4.77;3.73;;;;;;;10.35;63.75;98053.50;8445730;28;20231;-67
2022/12/25 06:21:55;;;;;;;6.10;4.20;;;;;;;9.78;66.00;98076.50;8445218;28;20235;-68
2022/12/25 06:25:59;;;;;;;8.63;6.37;;;;;;;10.21;63.61;98076.53;8445502;28;20242;-68
2022/12/25 06:30:04;;;;;;;8.47;4.07;;;;;;;10.17;63.59;98070.63;8445558;28;20231;-67
2022/12/25 06:34:07;;;;;;;4.87;3.47;;;;;;;10.20;63.21;98071.41;8445391;28;20538;-67
2022/12/25 06:38:10;;;;;;;3.97;3.27;;;;;;;9.91;63.94;98076.03;8445414;28;20534;-67
2022/12/25 06:42:14;;;;;;;4.43;3.40;;;;;;;10.00;65.00;98078.25;8445353;28;20227;-67
2022/12/25 06:46:18;;;;;;;3.07;2.80;;;;;;;10.07;64.66;98089.16;8445190;28;20223;-67
2022/12/25 06:50:21;;;;;;;5.10;3.13;;;;;;;10.20;64.28;98087.75;8445418;28;20232;-68
2022/12/25 06:54:24;;;;;;;4.37;3.17;;;;;;;9.94;65.14;98087.09;8445312;28;20228;-67
2022/12/25 06:58:28;;;;;;;4.87;3.20;;;;;;;10.20;64.27;98082.59;8451268;28;20227;-67
2022/12/25 07:02:31;;;;;;;4.30;3.00;;;;;;;10.32;63.94;98084.72;8450809;28;20234;-67
2022/12/25 07:06:34;;;;;;;4.83;3.47;;;;;;;10.41;64.02;98085.25;8450972;28;20527;-68
2022/12/25 07:10:37;;;;;;;4.17;2.50;;;;;;;10.21;65.00;98076.53;8450616;28;20239;-67
2022/12/25 07:14:41;;;;;;;4.10;3.30;;;;;;;10.21;65.04;98080.88;8450640;28;20242;-67
2022/12/25 07:18:44;;;;;;;4.07;3.00;;;;;;;10.14;64.76;98090.63;8450197;28;20228;-67
2022/12/25 07:22:47;;;;;;;3.77;3.20;;;;;;;10.34;64.90;98102.78;8449911;28;20232;-67
2022/12/25 07:26:51;;;;;;;6.17;3.90;;;;;;;10.08;64.97;98099.47;8450365;28;20231;-67
2022/12/25 07:30:55;;;;;;;5.37;3.63;;;;;;;10.48;64.39;98104.78;8449825;28;20245;-68
2022/12/25 07:34:58;;;;;;;5.40;4.10;;;;;;;10.32;65.34;98102.00;8449466;28;20242;-68
2022/12/25 07:39:01;;;;;;;3.47;3.17;;;;;;;10.26;65.38;98095.31;8449865;28;20234;-68
2022/12/25 07:43:04;;;;;;;3.90;3.50;;;;;;;10.20;64.91;98074.00;8449562;28;20243;-68
2022/12/25 07:47:09;;;;;;;4.63;3.50;;;;;;;10.24;64.90;98063.44;8449389;28;20242;-67
2022/12/25 07:51:13;;;;;;;6.13;3.97;;;;;;;10.33;65.02;98067.44;8449673;28;20445;-68
2022/12/25 07:55:16;;;;;;;4.40;3.90;;;;;;;10.09;65.47;98067.53;8449486;28;20313;-68
2022/12/25 07:59:19;;;;;;;3.70;2.90;;;;;;;10.36;64.97;98082.84;8449789;28;20231;-68
2022/12/25 08:03:23;;;;;;;4.87;3.80;;;;;;;10.29;64.41;98084.81;8448873;28;20231;-68
2022/12/25 08:07:26;;;;;;;5.33;4.10;;;;;;;10.12;65.46;98074.31;8448885;28;20264;-68
2022/12/25 08:11:29;;;;;;;4.63;3.57;;;;;;;10.23;64.04;98069.53;8448803;28;20228;-67
2022/12/25 08:15:32;;;;;;;7.27;4.07;;;;;;;10.61;64.12;98066.28;8448780;28;20226;-68
2022/12/25 08:19:36;;;;;;;5.80;4.77;;;;;;;10.55;64.28;98067.38;8448601;28;20231;-68
2022/12/25 08:23:41;;;;;;;10.07;6.90;;;;;;;10.28;65.01;98066.75;8448384;28;20581;-68
2022/12/25 08:27:44;;;;;;;6.23;4.90;;;;;;;10.68;64.27;98058.19;8448361;28;20228;-67
2022/12/25 08:31:46;;;;;;;5.83;4.23;;;;;;;10.80;64.34;98064.56;8448135;28;20235;-67
2022/12/25 08:35:51;;;;;;;5.70;4.30;;;;;;;10.69;64.05;98059.84;8448026;28;20232;-67
2022/12/25 08:39:54;;;;;;;5.43;4.07;;;;;;;10.97;63.71;98071.59;8447850;28;20227;-67
2022/12/25 08:43:57;;;;;;;4.97;3.80;;;;;;;10.85;64.04;98066.94;8447943;28;20427;-68
2022/12/25 08:48:00;;;;;;;6.13;3.97;;;;;;;10.83;64.08;98050.63;8447791;28;20224;-68
2022/12/25 08:52:04;;;;;;;5.30;3.90;;;;;;;10.88;64.41;98074.59;8447133;28;20247;-67
2022/12/25 08:56:07;;;;;;;4.40;4.00;;;;;;;11.04;64.04;98074.75;8447084;28;20227;-67
2022/12/25 09:00:11;;;;;;;5.47;4.27;;;;;;;11.18;63.97;98068.97;8447273;28;20227;-67
2022/12/25 09:04:13;;;;;;;6.53;5.40;;;;;;;10.93;64.28;98051.94;8447230;28;20469;-67
2022/12/25 09:08:18;;;;;;;6.40;4.80;;;;;;;10.95;64.58;98070.84;8447274;28;20227;-68
2022/12/25 09:12:21;;;;;;;5.37;4.73;;;;;;;10.68;65.32;98065.09;8447210;28;20228;-67
2022/12/25 09:16:24;;;;;;;4.43;3.93;;;;;;;11.05;65.35;98066.91;8447109;28;20558;-67
2022/12/25 09:20:27;;;;;;;5.60;4.37;;;;;;;11.02;65.77;98068.81;8445712;28;20523;-67
2022/12/25 09:24:31;;;;;;;5.70;5.20;;;;;;;10.71;66.82;98070.97;8446724;28;20220;-67
2022/12/25 09:28:34;;;;;;;6.60;4.83;;;;;;;10.91;66.22;98062.34;8446574;28;20239;-68
2022/12/25 09:32:39;;;;;;;6.63;4.43;;;;;;;10.91;66.17;98075.31;8446562;28;20239;-67
2022/12/25 09:36:42;;;;;;;7.17;4.43;;;;;;;10.62;67.87;98065.34;8446367;28;20227;-67
2022/12/25 09:40:46;;;;;;;5.23;4.67;;;;;;;10.48;68.46;98064.19;8446330;28;20231;-67
2022/12/25 09:44:53;;;;;;;6.07;4.40;;;;;;;10.31;70.10;98053.72;8446359;28;20234;-67
2022/12/25 09:48:59;;;;;;;4.37;3.97;;;;;;;10.32;70.05;98035.53;8445674;28;20225;-67
2022/12/25 09:53:05;;;;;;;5.03;3.90;;;;;;;10.15;70.42;98032.78;8446360;28;20231;-67
2022/12/25 09:57:12;;;;;;;4.43;3.30;;;;;;;10.44;69.15;98025.56;8446249;28;20224;-67
2022/12/25 10:01:19;;;;;;;7.53;4.90;;;;;;;10.80;67.45;98022.28;8446073;28;20226;-67
2022/12/25 10:05:34;;;;;;;6.80;3.80;;;;;;;10.48;69.73;97989.13;8445792;28;20235;-67
2022/12/25 10:09:47;;;;;;;3.37;3.03;;;;;;;10.84;69.14;97979.78;8446131;28;20235;-67
2022/12/25 10:14:04;;;;;;;4.37;3.97;;;;;;;10.48;70.03;97932.16;8445903;28;20375;-67
2022/12/25 10:18:37;;;;;;;3.67;3.37;;;;;;;11.62;66.72;97945.00;8445591;28;20239;-67
2022/12/25 10:22:41;;;;;;;3.77;3.20;;;;;;;12.26;64.17;97948.75;8445671;28;20231;-67
2022/12/25 10:26:44;;;;;;;4.07;3.00;;;;;;;12.36;63.00;97954.31;8445791;28;20474;-68
2022/12/25 10:30:51;;;;;;;4.07;3.10;;;;;;;13.07;61.51;97955.75;8449729;28;20325;-68
2022/12/25 10:34:54;;;;;;;3.10;2.80;;;;;;;13.29;61.71;97974.47;8451372;28;20223;-68
2022/12/25 10:38:57;;;;;;;2.97;2.77;;;;;;;13.19;61.40;97983.69;8450458;28;20422;-68
2022/12/25 10:43:07;;;;;;;4.37;3.57;;;;;;;12.51;62.93;97992.47;8450291;28;20256;-68
2022/12/25 10:47:11;;;;;;;3.03;2.73;;;;;;;12.03;64.46;97994.06;8450619;28;20233;-67
2022/12/25 10:51:14;;;;;;;3.57;3.20;;;;;;;11.67;66.14;97983.69;8450613;28;20237;-67
2022/12/25 10:55:19;;;;;;;3.23;2.57;;;;;;;12.21;64.37;97983.66;8450392;28;20229;-68
2022/12/25 10:59:30;;;;;;;2.67;2.47;;;;;;;12.11;65.52;97981.53;8450695;28;20259;-67
2022/12/25 11:03:37;;;;;;;2.87;2.67;;;;;;;11.47;66.55;97977.69;8450225;28;20574;-68
2022/12/25 11:07:52;;;;;;;3.33;2.77;;;;;;;11.53;67.10;97964.44;8450033;28;20238;-67
2022/12/25 11:11:55;;;;;;;3.90;2.90;;;;;;;11.78;66.63;97952.03;8449524;28;20515;-68
2022/12/25 11:16:08;;;;;;;2.87;2.60;;;;;;;11.99;65.64;97953.56;8450245;28;20527;-68
2022/12/25 11:20:19;;;;;;;4.37;2.87;;;;;;;12.38;64.18;97951.66;8449552;28;20238;-68
2022/12/25 11:24:25;;;;;;;3.87;3.13;;;;;;;11.80;66.81;97942.41;8449674;28;20235;-68
2022/12/25 11:28:30;;;;;;;3.53;2.83;;;;;;;11.81;65.27;97908.63;8449604;28;20227;-68
2022/12/25 11:32:37;;;;;;;2.60;2.40;;;;;;;12.21;65.69;97932.56;8449315;28;20224;-69
2022/12/25 11:36:45;;;;;;;2.37;2.17;;;;;;;12.10;65.06;97876.00;8449328;28;20234;-67
2022/12/25 11:40:51;;;;;;;3.90;2.57;;;;;;;12.50;64.13;97918.06;8448352;28;20239;-67
2022/12/25 11:44:58;;;;;;;2.57;2.37;;;;;;;12.10;65.44;97914.94;8448896;28;20229;-67
2022/12/25 11:49:07;;;;;;;2.43;2.27;;;;;;;12.25;64.91;97905.53;8448970;28;20224;-68
2022/12/25 11:53:17;;;;;;;4.47;3.17;;;;;;;11.73;66.29;97898.63;8448995;28;20400;-68
2022/12/25 11:57:21;;;;;;;4.37;2.93;;;;;;;11.75;66.22;97875.19;8448975;28;20316;-68
2022/12/25 12:01:30;;;;;;;4.03;2.80;;;;;;;11.74;67.06;97876.94;8448599;28;20229;-68
2022/12/25 12:05:36;;;;;;;3.90;2.63;;;;;;;11.55;67.36;97855.44;8448625;28;20223;-67
2022/12/25 12:09:46;;;;;;;2.73;2.53;;;;;;;11.71;66.82;97861.53;8448687;28;20545;-68
2022/12/25 12:13:59;;;;;;;3.80;2.97;;;;;;;11.99;66.09;97854.13;8447902;28;20611;-69
2022/12/25 12:18:09;;;;;;;3.23;2.93;;;;;;;11.90;65.77;97845.91;8436619;28;20236;-68
2022/12/25 12:22:20;;;;;;;4.03;2.73;;;;;;;12.16;65.65;97850.66;8445788;28;20500;-67
2022/12/25 12:26:26;;;;;;;3.43;2.80;;;;;;;12.05;66.04;97838.22;8447513;28;20236;-67
2022/12/25 12:30:31;;;;;;;5.20;3.63;;;;;;;12.09;65.65;97832.81;8447698;28;20232;-68
2022/12/25 12:34:41;;;;;;;2.43;2.20;;;;;;;12.20;65.86;97828.81;8447295;28;20228;-68
2022/12/25 12:38:44;;;;;;;2.70;2.50;;;;;;;12.01;66.86;97823.75;8447014;28;20234;-68
2022/12/25 12:42:49;;;;;;;2.80;2.50;;;;;;;11.98;66.52;97823.91;8447059;28;20430;-68
2022/12/25 12:46:54;;;;;;;2.50;2.30;;;;;;;12.38;65.09;97804.44;8447316;28;20228;-69
2022/12/25 12:51:05;;;;;;;2.30;2.10;;;;;;;12.01;64.91;97738.91;8446822;28;20271;-68
2022/12/25 12:55:11;;;;;;;2.47;2.27;;;;;;;11.95;65.75;97757.44;8446258;28;20239;-70
2022/12/25 12:59:16;;;;;;;2.63;2.20;;;;;;;12.57;64.36;97806.88;8446043;28;20232;-67
2022/12/25 13:03:28;;;;;;;2.73;2.20;;;;;;;12.47;65.15;97816.94;8445765;28;20247;-67
2022/12/25 13:07:43;;;;;;;2.17;2.00;;;;;;;12.22;66.03;97819.16;8445727;28;20251;-68
2022/12/25 13:11:46;;;;;;;2.70;2.30;;;;;;;12.30;65.71;97815.25;8445237;28;20226;-67
2022/12/25 13:15:51;;;;;;;2.47;2.27;;;;;;;12.67;64.89;97808.03;8445757;28;20229;-68
2022/12/25 13:19:55;;;;;;;2.40;2.20;;;;;;;12.56;65.45;97819.94;8444927;28;20595;-68
2022/12/25 13:23:59;;;;;;;2.00;1.90;;;;;;;12.64;65.08;97810.84;8444742;28;20232;-68
2022/12/25 13:28:04;;;;;;;2.33;2.00;;;;;;;12.36;66.01;97798.50;8445689;28;20294;-67
2022/12/25 13:32:18;;;;;;;2.97;2.67;;;;;;;12.38;66.10;97770.69;8445329;28;20228;-68
2022/12/25 13:36:21;;;;;;;3.20;2.90;;;;;;;12.36;66.04;97766.53;8445586;28;20521;-68
2022/12/25 13:40:26;;;;;;;3.63;2.83;;;;;;;12.43;66.76;97770.44;8445329;28;20230;-68
2022/12/25 13:44:31;;;;;;;4.23;3.50;;;;;;;12.52;66.22;97760.38;8445507;28;20285;-68
2022/12/25 13:48:36;;;;;;;4.13;2.97;;;;;;;12.76;64.96;97770.31;8445205;28;20227;-67
2022/12/25 13:52:39;;;;;;;2.60;2.40;;;;;;;12.71;65.94;97782.72;8444894;28;20224;-68
2022/12/25 13:56:46;;;;;;;2.73;2.47;;;;;;;12.60;65.92;97783.31;8445125;28;20225;-68
2022/12/25 14:00:51;;;;;;;3.10;2.37;;;;;;;12.75;65.29;97791.19;8445009;28;20232;-68
2022/12/25 14:04:56;;;;;;;2.13;1.97;;;;;;;12.62;66.19;97783.25;8447243;28;20236;-68
2022/12/25 14:08:59;;;;;;;2.17;1.90;;;;;;;12.60;65.52;97772.09;8451769;28;20423;-68
2022/12/25 14:13:05;;;;;;;1.90;1.80;;;;;;;12.91;65.20;97786.81;8451479;28;20552;-67
2022/12/25 14:17:09;;;;;;;2.50;2.10;;;;;;;12.45;66.74;97781.56;8451244;28;20250;-67
2022/12/25 14:21:16;;;;;;;1.63;1.53;;;;;;;12.70;66.20;97789.69;8451082;28;20436;-68
2022/12/25 14:25:19;;;;;;;3.63;2.20;;;;;;;12.31;66.86;97808.28;8450736;28;20232;-67
2022/12/25 14:29:22;;;;;;;2.10;2.00;;;;;;;12.50;66.07;97795.97;8450645;28;20496;-67
2022/12/25 14:33:35;;;;;;;2.23;2.03;;;;;;;12.31;67.50;97779.72;8450993;28;20234;-68
2022/12/25 14:37:40;;;;;;;2.60;2.40;;;;;;;12.30;66.19;97763.31;8450629;28;20236;-67
2022/12/25 14:41:52;;;;;;;3.00;2.70;;;;;;;12.43;65.98;97773.03;8450464;28;20575;-68
2022/12/25 14:45:56;;;;;;;5.67;3.20;;;;;;;12.32;66.40;97752.84;8450158;28;20233;-68
2022/12/25 14:49:59;;;;;;;4.70;3.47;;;;;;;12.34;66.65;97771.78;8450236;28;20512;-68
2022/12/25 14:54:05;;;;;;;3.30;2.60;;;;;;;12.13;66.85;97746.06;8449724;28;20538;-67
2022/12/25 14:58:19;;;;;;;2.60;2.40;;;;;;;12.02;68.31;97758.78;8450112;28;20228;-68
2022/12/25 15:02:22;;;;;;;2.90;2.60;;;;;;;12.13;67.78;97748.66;8449668;28;20223;-68
2022/12/25 15:06:25;;;;;;;3.40;3.10;;;;;;;12.22;67.48;97744.75;8449386;28;20492;-68
2022/12/25 15:10:30;;;;;;;5.47;4.97;;;;;;;11.96;67.69;97727.97;8449504;28;20234;-68
2022/12/25 15:14:53;;;;;;;3.67;2.80;;;;;;;12.36;66.93;97759.56;8447836;28;20299;-69
2022/12/25 15:18:56;;;;;;;2.90;2.07;;;;;;;12.12;67.52;97765.13;8448796;28;20240;-69
2022/12/25 15:22:59;;;;;;;3.23;2.73;;;;;;;11.93;68.74;97764.47;8448758;28;20525;-68
2022/12/25 15:27:23;;;;;;;3.10;2.80;;;;;;;12.11;68.29;97753.09;8448759;28;20219;-68
2022/12/25 15:31:27;;;;;;;3.33;2.57;;;;;;;12.18;67.85;97748.41;8449374;28;20567;-69
2022/12/25 15:35:31;;;;;;;3.80;2.90;;;;;;;12.06;68.16;97752.50;8448546;28;20274;-68
2022/12/25 15:39:34;;;;;;;3.83;3.47;;;;;;;12.05;68.76;97756.03;8448925;28;20246;-69
2022/12/25 15:43:38;;;;;;;8.80;7.27;;;;;;;12.27;67.78;97758.28;8448497;28;20239;-68
2022/12/25 15:47:43;;;;;;;8.60;6.47;;;;;;;12.01;67.85;97746.72;8449245;28;20232;-68
2022/12/25 15:51:46;;;;;;;11.37;8.87;;;;;;;11.82;68.96;97770.19;8449156;28;20232;-68
2022/12/25 15:55:49;;;;;;;5.90;4.90;;;;;;;12.06;68.58;97756.88;8448775;28;20522;-69
2022/12/25 15:59:53;;;;;;;5.27;4.60;;;;;;;11.89;68.79;97761.19;8448307;28;20235;-68
2022/12/25 16:03:56;;;;;;;3.77;3.20;;;;;;;12.12;67.83;97761.72;8447352;28;20255;-68
2022/12/25 16:07:59;;;;;;;3.13;2.60;;;;;;;11.76;69.47;97773.09;8447475;28;20518;-67
2022/12/25 16:12:02;;;;;;;3.80;3.43;;;;;;;11.84;68.49;97763.16;8447245;28;20331;-68
2022/12/25 16:16:07;;;;;;;3.60;3.03;;;;;;;11.88;69.20;97762.09;8447146;28;20284;-67
2022/12/25 16:20:10;;;;;;;4.10;3.27;;;;;;;11.82;69.32;97766.75;8446616;28;20228;-68
2022/12/25 16:24:14;;;;;;;3.60;3.30;;;;;;;11.72;69.62;97758.59;8446617;28;20396;-69
2022/12/25 16:28:17;;;;;;;3.77;3.23;;;;;;;11.86;69.27;97752.69;8446805;28;20511;-67
2022/12/25 16:32:21;;;;;;;4.63;3.57;;;;;;;11.57;69.92;97743.84;8447051;28;20220;-69
2022/12/25 16:36:24;;;;;;;4.20;3.77;;;;;;;11.05;70.29;97677.38;8446601;28;20367;-67
2022/12/25 16:40:29;;;;;;;6.37;3.70;;;;;;;11.41;70.10;97713.53;8446037;28;20251;-68
2022/12/25 16:44:31;;;;;;;4.90;3.97;;;;;;;11.74;68.57;97749.00;8445963;28;20315;-68
2022/12/25 16:48:36;;;;;;;4.10;3.00;;;;;;;11.65;69.29;97742.53;8446628;28;20224;-66
2022/12/25 16:52:39;;;;;;;4.43;3.03;;;;;;;11.71;69.22;97738.78;8447037;28;20235;-67
2022/12/25 16:56:41;;;;;;;5.67;2.80;;;;;;;11.58;70.19;97737.75;8447091;28;20231;-66
2022/12/25 17:00:44;;;;;;;4.50;2.97;;;;;;;11.39;70.78;97735.28;8447011;28;20231;-67
2022/12/25 17:04:53;;;;;;;3.50;3.20;;;;;;;11.35;70.56;97740.59;8447025;28;20238;-66
2022/12/25 17:08:58;;;;;;;3.50;3.20;;;;;;;11.45;69.97;97750.50;8446791;28;20387;-67
2022/12/25 17:13:00;;;;;;;4.27;3.70;;;;;;;11.44;70.82;97751.41;8446925;28;20224;-66
2022/12/25 17:17:03;;;;;;;4.67;3.50;;;;;;;11.15;70.64;97731.22;8446635;28;20235;-67
2022/12/25 17:21:08;;;;;;;4.77;3.33;;;;;;;11.34;70.97;97728.53;8446689;28;20231;-66
2022/12/25 17:25:11;;;;;;;4.23;3.83;;;;;;;11.51;69.83;97730.28;8446501;28;20240;-66
2022/12/25 17:29:15;;;;;;;4.63;3.80;;;;;;;11.45;70.29;97732.34;8445723;28;20539;-66
2022/12/25 17:33:23;;;;;;;5.70;4.10;;;;;;;11.09;71.21;97721.19;8445504;28;20523;-67
2022/12/25 17:37:27;;;;;;;5.43;4.27;;;;;;;11.13;71.32;97727.88;8445663;28;20224;-67
2022/12/25 17:41:30;;;;;;;4.83;4.30;;;;;;;11.14;71.63;97721.78;8444583;28;20552;-67
2022/12/25 17:45:36;;;;;;;4.73;3.90;;;;;;;11.39;70.70;97715.38;8445350;28;20227;-68
2022/12/25 17:49:39;;;;;;;4.33;3.70;;;;;;;11.48;70.46;97733.03;8434494;28;20235;-68
2022/12/25 17:53:46;;;;;;;4.73;4.23;;;;;;;11.33;69.89;97726.06;8445687;28;20439;-67
2022/12/25 17:57:49;;;;;;;4.87;4.37;;;;;;;11.27;70.77;97715.97;8445677;28;20231;-68
2022/12/25 18:01:52;;;;;;;5.77;4.83;;;;;;;11.23;70.96;97712.72;8445190;28;20227;-69
2022/12/25 18:05:55;;;;;;;4.97;4.17;;;;;;;11.48;69.93;97714.88;8445597;28;20243;-68
2022/12/25 18:09:59;;;;;;;4.83;3.90;;;;;;;11.45;69.38;97703.84;8445246;28;20223;-68
2022/12/25 18:14:04;;;;;;;5.43;4.00;;;;;;;11.57;68.75;97692.81;8445456;28;20535;-68
2022/12/25 18:18:08;;;;;;;4.80;3.83;;;;;;;11.51;69.71;97709.53;8445008;28;20364;-67
2022/12/25 18:22:11;;;;;;;16.33;10.00;;;;;;;11.40;69.66;97727.41;8444832;28;20235;-68
2022/12/25 18:26:16;;;;;;;12.77;8.07;;;;;;;11.30;70.08;97726.19;8444753;28;20232;-67
2022/12/25 18:30:19;;;;;;;22.63;12.83;;;;;;;11.21;70.62;97730.09;8444764;28;20224;-66
2022/12/25 18:34:22;;;;;;;18.40;11.53;;;;;;;11.35;69.79;97721.63;8444504;28;20231;-68
2022/12/25 18:38:25;;;;;;;7.00;6.00;;;;;;;11.45;69.89;97721.97;8444527;28;20418;-67
2022/12/25 18:42:42;;;;;;;4.93;4.43;;;;;;;11.63;69.04;97727.97;8444018;28;20228;-67
2022/12/25 18:46:44;;;;;;;5.97;5.07;;;;;;;11.64;69.44;97732.25;8444410;28;20295;-68
2022/12/25 18:50:54;;;;;;;6.40;5.80;;;;;;;11.86;68.15;97735.38;8446575;28;20227;-66
2022/12/25 18:54:57;;;;;;;4.90;4.43;;;;;;;12.01;67.60;97748.47;8450193;28;20385;-67
2022/12/25 18:59:01;;;;;;;5.37;4.87;;;;;;;12.08;66.79;97740.28;8450333;28;20408;-68
2022/12/25 19:03:04;;;;;;;10.47;7.63;;;;;;;11.78;67.94;97715.94;8450064;28;20231;-66
2022/12/25 19:07:07;;;;;;;6.07;5.37;;;;;;;11.73;67.89;97711.00;8449894;28;20231;-67
2022/12/25 19:11:10;;;;;;;6.03;5.43;;;;;;;11.48;69.06;97701.06;8449689;28;20243;-68
2022/12/25 19:15:15;;;;;;;8.63;6.60;;;;;;;11.60;68.40;97697.84;8448909;28;20228;-68
2022/12/25 19:19:18;;;;;;;5.70;5.10;;;;;;;11.26;70.02;97693.56;8448841;28;20652;-68
2022/12/25 19:23:21;;;;;;;5.67;5.07;;;;;;;11.39;69.03;97691.19;8449034;28;20227;-68
2022/12/25 19:27:23;;;;;;;8.30;5.60;;;;;;;11.54;68.77;97685.22;8449116;28;20235;-67
2022/12/25 19:31:30;;;;;;;7.33;4.93;;;;;;;11.69;67.99;97673.16;8449521;28;20231;-68
2022/12/25 19:35:33;;;;;;;5.47;4.93;;;;;;;11.82;67.46;97692.38;8449666;28;20234;-67
2022/12/25 19:39:35;;;;;;;6.63;5.90;;;;;;;11.77;67.30;97672.78;8449905;28;20220;-69
2022/12/25 19:43:40;;;;;;;8.17;7.33;;;;;;;11.89;67.26;97688.53;8449888;28;20437;-68
2022/12/25 19:47:44;;;;;;;7.50;6.67;;;;;;;11.84;66.92;97698.31;8449402;28;20228;-68
2022/12/25 19:51:47;;;;;;;10.33;8.47;;;;;;;11.94;66.82;97719.44;8449531;28;20232;-68
2022/12/25 19:55:51;;;;;;;8.33;7.27;;;;;;;11.92;66.38;97727.28;8449715;28;20227;-68
2022/12/25 19:59:53;;;;;;;7.63;6.87;;;;;;;11.80;66.43;97719.28;8448265;28;20266;-68
2022/12/25 20:03:58;;;;;;;7.87;7.07;;;;;;;11.84;66.14;97731.19;8448510;28;20232;-67
2022/12/25 20:08:01;;;;;;;12.67;10.47;;;;;;;11.69;65.51;97709.47;8448792;28;20240;-69
2022/12/25 20:12:04;;;;;;;31.63;20.00;;;;;;;11.82;66.21;97746.00;8448911;28;20232;-68
2022/12/25 20:16:08;;;;;;;21.87;15.77;;;;;;;11.57;66.27;97736.06;8448355;28;20230;-68
2022/12/25 20:20:13;;;;;;;23.23;16.43;;;;;;;11.72;66.60;97749.06;8448136;28;20232;-68
2022/12/25 20:24:16;;;;;;;13.23;9.50;;;;;;;11.81;67.16;97757.31;8447849;28;20224;-68
2022/12/25 20:28:19;;;;;;;11.00;7.87;;;;;;;11.89;66.99;97758.59;8447868;28;20227;-68
2022/12/25 20:32:21;;;;;;;7.50;6.80;;;;;;;11.92;66.54;97753.25;8447926;28;20431;-68
2022/12/25 20:36:26;;;;;;;6.57;5.67;;;;;;;11.73;67.84;97750.75;8447672;28;20239;-67
2022/12/25 20:40:36;;;;;;;6.70;5.83;;;;;;;11.78;67.64;97760.88;8447546;28;20228;-68
2022/12/25 20:44:59;;;;;;;6.77;5.80;;;;;;;11.87;66.96;97756.97;8446625;28;20299;-67
2022/12/25 20:49:02;;;;;;;6.20;5.47;;;;;;;11.79;67.59;97748.75;8447283;28;20485;-68